Time;durP1;ratioP1;P1;durP2;ratioP2;P2;SDS_P1;SDS_P2;PMS_P1;PMS_P2;Temp;Humidity;BMP_temperature;BMP_pressure;BME280_temperature;BME280_humidity;BME280_pressure;Samples;Min_cycle;Max_cycle;Signal;HPM_P1;HPM_P2
2021/03/13 04:38:40;;;;;;;1.90;0.87;;;7.70;99.90;;;;;;1039025;23;20762;-95
2021/03/13 04:41:48;;;;;;;3.77;1.30;;;7.70;99.90;;;;;;5003922;28;20475;-93
2021/03/13 04:44:34;;;;;;;2.40;1.40;;;7.70;99.90;;;;;;5012717;28;20506;-93
2021/03/13 04:47:32;;;;;;;;;;;;;;;;;;;;;
2021/03/13 04:50:35;;;;;;;1.60;0.93;;;7.80;99.90;;;;;;5012349;28;20431;-93
2021/03/13 04:53:50;;;;;;;;;;;;;;;;;;;;;
2021/03/13 04:56:43;;;;;;;2.03;0.97;;;8.00;99.90;;;;;;5014204;28;20458;-94
2021/03/13 05:02:43;;;;;;;2.63;1.43;;;7.90;99.90;;;;;;5041671;28;20450;-94
2021/03/13 05:05:25;;;;;;;1.00;0.90;;;7.90;99.90;;;;;;5027946;28;20486;-94
2021/03/13 05:08:25;;;;;;;8.83;1.23;;;8.00;99.90;;;;;;5018126;28;20457;-94
2021/03/13 05:14:04;;;;;;;2.87;1.07;;;8.00;99.90;;;;;;5021464;28;20450;-95
2021/03/13 05:16:51;;;;;;;2.73;1.07;;;8.00;99.90;;;;;;5041728;28;20434;-95
2021/03/13 05:26:48;;;;;;;3.33;1.07;;;8.10;99.90;;;;;;4986828;28;20434;-93
2021/03/13 05:30:00;;;;;;;3.90;1.10;;;8.20;99.90;;;;;;5019234;28;20473;-93
2021/03/13 05:33:29;;;;;;;2.20;0.70;;;8.20;99.90;;;;;;4981438;28;20519;-93
2021/03/13 05:36:30;;;;;;;2.63;0.83;;;8.20;99.90;;;;;;5026442;28;20488;-93
2021/03/13 05:42:52;;;;;;;2.00;0.80;;;8.30;99.10;;;;;;5035836;28;20446;-95
2021/03/13 05:49:18;;;;;;;1.30;0.80;;;8.40;98.60;;;;;;5009009;28;20450;-93
2021/03/13 05:52:22;;;;;;;1.77;0.80;;;8.50;98.30;;;;;;4977916;28;20472;-93
2021/03/13 05:55:16;;;;;;;1.80;1.20;;;8.50;98.20;;;;;;4996922;28;20470;-95
2021/03/13 08:12:41;;;;;;;2.40;0.80;;;10.70;84.10;;;;;;4231935;23;20474;-87
2021/03/13 08:15:12;;;;;;;2.40;0.83;;;10.70;83.60;;;;;;5007081;28;20438;-88
2021/03/13 08:17:40;;;;;;;2.43;0.77;;;10.60;84.10;;;;;;5001972;28;20450;-89
2021/03/13 08:20:07;;;;;;;2.60;0.80;;;10.60;83.20;;;;;;5017229;28;20446;-90
2021/03/13 08:22:33;;;;;;;2.13;1.00;;;10.70;82.00;;;;;;5010438;28;20522;-90
2021/03/13 11:49:35;;;;;;;2.33;0.60;;;12.50;68.10;;;;;;4400248;23;21909;31
2021/03/13 11:52:16;;;;;;;2.20;0.70;;;12.50;68.00;;;;;;5001648;28;20436;-93
2021/03/13 11:54:43;;;;;;;1.13;0.63;;;12.60;68.30;;;;;;4997070;28;20504;-93
2021/03/13 11:57:16;;;;;;;1.17;0.70;;;12.60;67.80;;;;;;4977561;28;20445;-92
2021/03/13 11:59:45;;;;;;;2.83;1.33;;;12.60;67.40;;;;;;4973051;29;20464;-91
2021/03/13 12:02:15;;;;;;;0.97;0.60;;;12.60;67.50;;;;;;4980819;28;20463;-92
2021/03/13 12:04:51;;;;;;;1.33;0.80;;;12.70;67.80;;;;;;4976964;28;20472;-91
2021/03/13 12:07:18;;;;;;;4.60;1.27;;;12.70;67.70;;;;;;4991346;28;20444;-93
2021/03/13 12:09:45;;;;;;;1.97;0.70;;;12.70;67.50;;;;;;4974159;28;20455;-94
2021/03/13 12:12:12;;;;;;;4.67;1.00;;;12.60;67.40;;;;;;4974211;28;20448;-91
2021/03/13 12:24:48;;;;;;;;;;;;;;;;;;;;;
2021/03/13 12:37:20;;;;;;;1.80;0.80;;;12.30;76.20;;;;;;5466081;23;20505;-89
2021/03/13 12:43:43;;;;;;;2.77;1.00;;;12.50;75.40;;;;;;5006886;28;20461;-89
2021/03/13 12:49:42;;;;;;;1.80;1.13;;;12.70;75.20;;;;;;4894666;29;20486;-85
2021/03/13 12:56:05;;;;;;;4.10;1.03;;;12.80;75.20;;;;;;4930901;29;20478;-86
2021/03/13 13:02:19;;;;;;;1.20;1.00;;;12.20;77.90;;;;;;4926053;29;20443;-86
2021/03/13 13:05:12;;;;;;;3.83;0.90;;;12.10;82.40;;;;;;4927779;28;20527;-85
2021/03/13 13:07:50;;;;;;;3.77;0.97;;;12.00;85.10;;;;;;5004074;28;20472;-84
2021/03/13 13:14:07;;;;;;;4.80;1.57;;;11.00;92.70;;;;;;4886101;29;21932;-88
2021/03/13 13:27:56;;;;;;;;;;;;;;;;;;;;;
2021/03/13 13:34:55;;;;;;;7.57;3.77;;;8.00;99.90;;;;;;4814584;29;20467;-86
2021/03/13 13:43:24;;;;;;;;;;;;;;;;;;;;;
2021/03/13 13:46:37;;;;;;;3.80;1.60;;;7.70;99.90;;;;;;4936956;29;20489;-86
2021/03/13 13:49:53;;;;;;;1.93;1.27;;;7.80;99.90;;;;;;4908766;29;20833;-85
2021/03/13 14:05:30;;;;;;;0.60;0.50;;;7.90;99.90;;;;;;4998442;28;20986;-86
2021/03/13 14:08:25;;;;;;;1.33;0.70;;;8.10;99.90;;;;;;4977616;28;20451;-86
2021/03/13 14:11:38;;;;;;;3.20;1.50;;;8.20;99.90;;;;;;4994219;28;20463;-87
2021/03/13 14:30:53;;;;;;;;;;;;;;;;;;;;;
2021/03/13 15:34:17;;;;;;;1.77;0.60;;;7.60;98.40;;;;;;5017808;28;20564;-86
2021/03/13 15:40:37;;;;;;;1.07;0.53;;;7.60;98.60;;;;;;5006954;28;20442;-88
2021/03/13 15:43:38;;;;;;;;;;;;;;;;;;;;;
2021/03/13 15:46:05;;;;;;;2.97;0.60;;;7.60;99.30;;;;;;5021804;23;20481;-86
2021/03/13 15:48:31;;;;;;;1.47;0.80;;;7.50;98.90;;;;;;4991647;28;20440;-85
2021/03/13 15:50:58;;;;;;;1.10;0.50;;;7.50;99.70;;;;;;5001288;28;20451;-85
2021/03/13 15:53:25;;;;;;;0.93;0.57;;;7.50;99.20;;;;;;4997795;28;20428;-83
2021/03/13 15:55:53;;;;;;;1.47;0.87;;;7.40;99.40;;;;;;4991127;28;20432;-86
2021/03/13 15:58:25;;;;;;;0.80;0.67;;;7.40;99.90;;;;;;4995830;28;20448;-86
2021/03/13 16:00:51;;;;;;;0.80;0.53;;;7.40;99.80;;;;;;4982598;28;20572;-85
2021/03/13 16:03:18;;;;;;;1.63;0.50;;;7.50;99.60;;;;;;4982817;28;20516;-85
2021/03/13 16:05:44;;;;;;;1.63;0.60;;;7.50;99.50;;;;;;4978277;28;20514;-85
2021/03/13 16:08:11;;;;;;;1.30;0.60;;;7.50;99.90;;;;;;4979457;28;20546;-85
2021/03/13 16:10:38;;;;;;;1.17;1.00;;;7.50;99.80;;;;;;4978653;28;21067;-85
2021/03/13 16:13:04;;;;;;;1.03;0.90;;;7.40;99.80;;;;;;4977807;28;20456;-84
2021/03/13 16:15:31;;;;;;;1.70;1.00;;;7.40;99.90;;;;;;4977211;28;20499;-84
2021/03/13 16:17:57;;;;;;;0.63;0.60;;;7.40;99.80;;;;;;4978476;28;20479;-85
2021/03/13 16:20:23;;;;;;;3.10;0.90;;;7.40;99.80;;;;;;4982897;28;20471;-85
2021/03/13 16:22:50;;;;;;;1.10;0.80;;;7.40;99.80;;;;;;4991350;28;20500;-84
2021/03/13 16:25:16;;;;;;;3.00;0.90;;;7.40;99.70;;;;;;4984345;28;20509;-85
2021/03/13 16:27:43;;;;;;;1.67;0.93;;;7.40;99.80;;;;;;4984083;28;20463;-84
2021/03/13 16:30:10;;;;;;;3.57;0.80;;;7.50;99.70;;;;;;4985999;28;20964;-85
2021/03/13 16:32:39;;;;;;;3.13;0.90;;;7.40;99.60;;;;;;4982078;28;20447;-85
2021/03/13 16:35:08;;;;;;;0.80;0.80;;;7.50;99.70;;;;;;4979493;28;20439;-86
2021/03/13 16:37:34;;;;;;;4.03;0.70;;;7.50;99.70;;;;;;4979018;28;20455;-84
2021/03/13 16:40:01;;;;;;;3.80;1.00;;;7.50;99.60;;;;;;4977588;28;20451;-84
2021/03/13 16:42:28;;;;;;;1.40;1.07;;;7.50;99.90;;;;;;4997337;28;20456;-85
2021/03/13 16:44:56;;;;;;;2.20;1.00;;;7.50;99.90;;;;;;4989592;28;20489;-85
2021/03/13 16:47:22;;;;;;;1.50;0.80;;;7.50;99.80;;;;;;4976953;28;20495;-84
2021/03/13 16:49:48;;;;;;;1.30;0.87;;;7.50;99.90;;;;;;4979073;28;20448;-85
2021/03/13 16:52:15;;;;;;;1.07;0.80;;;7.50;99.80;;;;;;4982770;28;20459;-85
2021/03/13 16:54:41;;;;;;;4.13;1.20;;;7.50;99.80;;;;;;4980716;28;20963;-85
2021/03/13 16:57:08;;;;;;;1.50;1.10;;;7.40;99.60;;;;;;4986566;28;20471;-84
2021/03/13 16:59:34;;;;;;;1.40;0.97;;;7.30;99.50;;;;;;4994769;28;20944;-85
2021/03/13 17:02:02;;;;;;;2.00;1.90;;;7.30;99.80;;;;;;4988669;28;20519;-85
2021/03/13 17:04:29;;;;;;;1.30;0.90;;;7.20;99.90;;;;;;4979872;28;20529;-84
2021/03/13 17:06:55;;;;;;;1.27;0.90;;;7.10;99.90;;;;;;4980330;28;20773;-84
2021/03/13 17:09:21;;;;;;;1.20;0.90;;;7.10;99.90;;;;;;4988904;28;20451;-85
2021/03/13 17:11:47;;;;;;;2.00;1.17;;;7.10;99.90;;;;;;4994406;28;20447;-84
2021/03/13 17:14:14;;;;;;;0.87;0.87;;;7.00;99.90;;;;;;4994682;28;20456;-86
2021/03/13 17:16:40;;;;;;;1.67;0.83;;;7.00;99.90;;;;;;4985164;28;20464;-85
2021/03/13 17:19:07;;;;;;;2.37;1.73;;;7.00;99.90;;;;;;4981073;28;20455;-85
2021/03/13 17:21:33;;;;;;;2.80;2.00;;;7.00;99.90;;;;;;4981391;28;20444;-85
2021/03/13 17:24:00;;;;;;;3.60;1.33;;;7.00;99.80;;;;;;4995944;28;20463;-85
2021/03/13 17:26:26;;;;;;;1.50;1.13;;;7.00;99.90;;;;;;4989831;28;20451;-85
2021/03/13 17:28:52;;;;;;;1.47;1.13;;;7.00;99.90;;;;;;4979359;28;20452;-84
2021/03/13 17:31:19;;;;;;;3.40;1.00;;;7.00;99.80;;;;;;4979975;28;20561;-85
2021/03/13 17:33:45;;;;;;;1.63;1.03;;;7.00;99.90;;;;;;4979977;28;20452;-85
2021/03/13 17:36:19;;;;;;;1.70;1.30;;;7.00;99.80;;;;;;4979191;28;20468;-85
2021/03/13 17:38:45;;;;;;;2.53;2.07;;;7.10;99.90;;;;;;4978326;28;20455;-85
2021/03/13 17:41:12;;;;;;;3.00;1.07;;;7.00;99.90;;;;;;4979341;28;20949;-86
2021/03/13 17:43:39;;;;;;;2.10;1.20;;;7.10;99.90;;;;;;4979292;28;20448;-86
2021/03/13 17:46:06;;;;;;;1.90;1.00;;;7.10;99.90;;;;;;4981142;28;20480;-85
2021/03/13 17:48:32;;;;;;;1.73;1.17;;;7.10;99.90;;;;;;4981464;28;20941;-84
2021/03/13 17:50:58;;;;;;;2.47;0.90;;;7.00;99.90;;;;;;4987574;28;20455;-86
2021/03/13 17:53:26;;;;;;;3.80;1.70;;;7.00;99.90;;;;;;4980656;28;20463;-86
2021/03/13 17:55:53;;;;;;;2.50;1.30;;;7.00;99.90;;;;;;4977886;28;20460;-86
2021/03/13 17:58:19;;;;;;;2.23;1.30;;;7.00;99.90;;;;;;4977284;28;20502;-86
2021/03/13 18:00:45;;;;;;;1.17;1.03;;;6.90;99.90;;;;;;4976900;28;20866;-84
2021/03/13 18:03:12;;;;;;;1.93;0.90;;;6.90;99.90;;;;;;4976363;28;20451;-85
2021/03/13 18:05:38;;;;;;;2.00;1.17;;;7.00;99.90;;;;;;4986779;28;20483;-86
2021/03/13 18:08:05;;;;;;;2.07;1.10;;;7.00;99.90;;;;;;4997701;28;20440;-85
2021/03/13 18:10:32;;;;;;;4.43;1.53;;;7.00;99.80;;;;;;4996234;28;20474;-85
2021/03/13 18:12:59;;;;;;;2.37;1.27;;;7.00;99.90;;;;;;4993482;28;20472;-85
2021/03/13 18:15:25;;;;;;;1.70;1.03;;;7.00;99.80;;;;;;4998411;28;20455;-85
2021/03/13 18:17:52;;;;;;;3.57;1.97;;;7.00;99.90;;;;;;4995432;28;20456;-86
2021/03/13 18:20:18;;;;;;;5.23;2.20;;;7.00;99.90;;;;;;4992144;28;20458;-85
2021/03/13 18:22:45;;;;;;;5.53;2.20;;;7.00;99.90;;;;;;4998511;28;20436;-85
2021/03/13 18:25:12;;;;;;;2.23;1.50;;;7.00;99.90;;;;;;4983285;28;20494;-85
2021/03/13 18:27:40;;;;;;;3.37;1.40;;;6.90;99.90;;;;;;4977151;28;20968;-85
2021/03/13 18:30:08;;;;;;;2.50;1.80;;;7.00;99.90;;;;;;4978716;28;20440;-85
2021/03/13 18:32:35;;;;;;;2.10;1.40;;;6.90;99.90;;;;;;4979802;28;20440;-89
2021/03/13 18:35:01;;;;;;;2.77;1.60;;;7.00;99.90;;;;;;4981639;28;20443;-91
2021/03/13 18:37:28;;;;;;;2.80;2.00;;;7.10;99.80;;;;;;4979975;28;20464;-86
2021/03/13 18:39:54;;;;;;;3.00;1.77;;;7.10;99.70;;;;;;4976461;28;20968;-87
2021/03/13 18:42:20;;;;;;;7.97;2.50;;;7.20;99.50;;;;;;4979197;28;20454;-87
2021/03/13 18:44:47;;;;;;;3.17;1.53;;;7.20;99.60;;;;;;4998877;28;20467;-87
2021/03/13 18:47:13;;;;;;;3.70;2.50;;;7.20;99.60;;;;;;4989902;28;20484;-87
2021/03/13 18:49:40;;;;;;;2.60;1.47;;;7.20;99.90;;;;;;4994394;28;20436;-87
2021/03/13 18:52:06;;;;;;;4.90;1.83;;;7.10;99.90;;;;;;4979117;28;20443;-87
2021/03/13 18:54:32;;;;;;;4.90;1.97;;;7.10;99.90;;;;;;4977810;28;20452;-85
2021/03/13 18:56:59;;;;;;;4.00;1.70;;;7.10;99.90;;;;;;4978511;28;20471;-84
2021/03/13 18:59:25;;;;;;;2.20;1.70;;;7.10;99.90;;;;;;4985394;28;20456;-85
2021/03/13 19:01:52;;;;;;;8.67;2.60;;;7.10;99.90;;;;;;4981850;28;20443;-86
2021/03/13 19:04:18;;;;;;;5.20;2.80;;;7.10;99.90;;;;;;5006712;28;20465;-85
2021/03/13 19:06:45;;;;;;;7.97;2.00;;;7.10;99.90;;;;;;4998142;28;20562;-85
2021/03/13 19:16:08;;;;;;;3.50;1.97;;;7.20;99.90;;;;;;4955708;28;20463;-85
2021/03/13 19:19:14;;;;;;;3.20;1.73;;;7.20;99.90;;;;;;4978681;28;20475;-86
2021/03/13 19:22:05;;;;;;;3.57;1.70;;;7.20;99.90;;;;;;4981163;28;20442;-85
2021/03/13 19:24:49;;;;;;;2.57;1.73;;;7.10;99.90;;;;;;4978645;28;20480;-85
2021/03/13 19:27:45;;;;;;;3.90;2.37;;;7.10;99.90;;;;;;4976451;28;20456;-84
2021/03/13 19:30:17;;;;;;;8.00;2.20;;;7.10;99.90;;;;;;4973313;28;20448;-85
2021/03/13 19:36:40;;;;;;;4.13;2.20;;;7.10;99.90;;;;;;4950999;28;20461;-86
2021/03/13 19:39:31;;;;;;;4.27;1.90;;;7.10;99.90;;;;;;4977177;28;20466;-83
2021/03/13 19:48:10;;;;;;;4.60;2.20;;;7.10;99.90;;;;;;4974877;28;21026;-84
2021/03/13 19:50:37;;;;;;;4.63;2.00;;;7.00;99.90;;;;;;4976474;28;21007;-84
2021/03/13 19:57:32;;;;;;;3.73;2.23;;;7.00;99.90;;;;;;4947943;27;5229327;-85
2021/03/13 20:00:08;;;;;;;4.77;2.37;;;7.10;99.90;;;;;;5080453;28;20438;-85
2021/03/13 20:03:02;;;;;;;;;;;;;;;;;;;;;
2021/03/13 20:05:43;;;;;;;4.40;1.93;;;7.20;99.90;;;;;;5102023;28;20443;-85
2021/03/13 20:12:08;;;;;;;6.73;2.97;;;7.40;99.90;;;;;;5086717;28;20446;-85
2021/03/13 20:18:01;;;;;;;2.40;1.60;;;7.50;99.90;;;;;;5098318;28;20458;-85
2021/03/13 20:24:01;;;;;;;;;;;;;;;;;;;;;
2021/03/13 20:26:38;;;;;;;4.23;1.83;;;7.10;99.90;;;;;;5112993;28;20457;-84
2021/03/13 20:29:38;;;;;;;3.47;1.73;;;6.90;99.90;;;;;;5110779;28;20446;-85
2021/03/13 20:35:46;;;;;;;5.00;1.53;;;6.80;99.90;;;;;;5042069;28;20473;-84
2021/03/13 20:38:48;;;;;;;2.10;1.57;;;6.70;99.90;;;;;;5036176;28;20456;-85
2021/03/13 20:41:30;;;;;;;2.47;1.80;;;6.70;99.90;;;;;;5094392;28;20820;-85
2021/03/13 20:44:07;;;;;;;2.50;2.07;;;6.70;99.90;;;;;;5087395;28;20995;-85
2021/03/13 20:47:03;;;;;;;3.57;2.00;;;6.60;99.90;;;;;;5102826;28;20446;-84
2021/03/13 20:49:45;;;;;;;3.57;2.63;;;6.60;99.90;;;;;;5113401;28;20423;-84
2021/03/13 20:52:33;;;;;;;3.30;1.73;;;6.50;99.90;;;;;;5126759;27;20462;-85
2021/03/13 20:55:06;;;;;;;3.43;1.50;;;6.40;99.90;;;;;;5104175;28;20481;-84
2021/03/13 20:57:33;;;;;;;2.77;1.87;;;6.30;99.90;;;;;;5115881;28;20482;-86
2021/03/13 21:00:00;;;;;;;2.30;1.93;;;6.30;99.90;;;;;;5111239;28;20465;-85
2021/03/13 21:05:37;;;;;;;5.00;1.40;;;6.20;99.90;;;;;;5105541;28;20806;-85
2021/03/13 21:08:20;;;;;;;3.07;1.40;;;6.30;99.90;;;;;;5106068;28;20450;-85
2021/03/13 21:13:41;;;;;;;2.40;1.90;;;6.30;99.90;;;;;;5112410;23;20477;-91
2021/03/13 21:16:08;;;;;;;3.20;2.87;;;6.20;99.90;;;;;;4958762;29;20481;-89
2021/03/13 21:18:34;;;;;;;3.90;2.20;;;6.00;99.90;;;;;;4947428;29;20445;-89
2021/03/13 21:21:02;;;;;;;4.93;2.33;;;6.10;99.90;;;;;;4948679;29;21057;-87
2021/03/13 21:23:28;;;;;;;3.53;1.90;;;6.10;99.90;;;;;;4948024;29;20470;-88
2021/03/13 21:25:55;;;;;;;2.00;1.70;;;6.20;99.90;;;;;;4945625;29;20445;-88
2021/03/13 21:28:22;;;;;;;2.40;2.13;;;6.20;99.90;;;;;;4946238;29;20442;-90
2021/03/13 21:31:04;;;;;;;2.70;2.23;;;6.20;99.90;;;;;;4952626;29;20485;-86
2021/03/13 21:33:45;;;;;;;2.50;1.70;;;6.20;99.90;;;;;;4939974;29;20445;-84
2021/03/13 21:36:34;;;;;;;4.77;2.27;;;6.20;99.90;;;;;;4939695;29;20493;-84
2021/03/13 21:39:18;;;;;;;1.93;1.43;;;6.20;99.90;;;;;;4942394;29;20450;-84
2021/03/13 21:41:53;;;;;;;3.23;1.90;;;6.20;99.90;;;;;;4939214;29;20456;-84
2021/03/13 21:44:32;;;;;;;2.50;1.90;;;6.20;99.90;;;;;;4953609;29;20457;-85
2021/03/13 21:46:59;;;;;;;4.53;2.80;;;6.30;99.90;;;;;;4940152;29;20551;-84
2021/03/13 21:49:29;;;;;;;2.03;1.37;;;6.30;99.90;;;;;;4940917;29;20466;-84
2021/03/13 21:51:58;;;;;;;1.47;0.87;;;6.40;99.90;;;;;;4943456;29;20438;-85
2021/03/13 21:54:31;;;;;;;1.87;1.37;;;6.50;99.90;;;;;;4948110;29;20545;-85
2021/03/13 21:56:57;;;;;;;4.23;0.90;;;6.60;99.90;;;;;;4941221;29;20485;-85
2021/03/13 21:59:27;;;;;;;5.70;1.47;;;6.60;99.90;;;;;;4938876;29;20453;-85
2021/03/13 22:02:11;;;;;;;1.47;0.93;;;6.60;99.90;;;;;;4940998;29;20454;-85
2021/03/13 22:04:42;;;;;;;4.37;1.53;;;6.50;99.90;;;;;;4940104;29;20468;-85
2021/03/13 22:07:27;;;;;;;2.20;0.70;;;6.30;99.90;;;;;;4939350;29;20504;-85
2021/03/13 22:10:10;;;;;;;2.43;1.27;;;6.20;99.90;;;;;;4941672;29;20469;-85
2021/03/13 22:13:06;;;;;;;1.50;1.13;;;6.10;99.90;;;;;;4942014;29;20477;-85
2021/03/13 22:15:46;;;;;;;4.20;1.73;;;6.00;99.90;;;;;;4943592;29;20989;-84
2021/03/13 22:21:44;;;;;;;4.27;3.73;;;5.90;99.90;;;;;;4939439;29;20473;-85
2021/03/13 22:24:34;;;;;;;4.00;2.87;;;5.90;99.90;;;;;;4938383;29;20454;-85
2021/03/13 22:27:09;;;;;;;3.23;1.93;;;5.90;99.90;;;;;;4937584;29;20656;-85
2021/03/13 22:30:02;;;;;;;3.63;1.70;;;5.80;99.90;;;;;;4939170;29;20453;-85
2021/03/13 22:32:42;;;;;;;1.57;1.47;;;5.80;99.90;;;;;;4940610;29;20473;-85
2021/03/13 22:35:33;;;;;;;1.93;1.63;;;5.70;99.90;;;;;;4941543;29;20485;-85
2021/03/13 22:38:08;;;;;;;1.20;1.10;;;5.70;99.90;;;;;;4938412;29;20480;-85
2021/03/13 22:40:50;;;;;;;0.90;0.67;;;5.60;99.90;;;;;;4943243;29;20446;-85
2021/03/13 22:43:27;;;;;;;1.70;0.97;;;5.60;99.90;;;;;;4961175;28;20510;-84
2021/03/13 22:46:04;;;;;;;1.30;0.90;;;5.50;99.90;;;;;;4959792;28;20518;-84
2021/03/13 22:48:51;;;;;;;2.23;0.97;;;5.50;99.90;;;;;;4958511;28;20444;-83
2021/03/13 22:51:24;;;;;;;3.03;1.00;;;5.60;99.90;;;;;;4959348;29;20480;-84
2021/03/13 22:54:04;;;;;;;1.00;0.70;;;5.50;99.90;;;;;;4960168;29;20448;-85
2021/03/13 22:56:34;;;;;;;0.70;0.57;;;5.50;99.90;;;;;;4953395;29;20504;-84
2021/03/13 22:59:04;;;;;;;3.23;0.77;;;5.50;99.90;;;;;;4926966;29;20435;-85
2021/03/13 23:01:37;;;;;;;1.70;0.60;;;5.50;99.90;;;;;;4958476;28;20454;-84
2021/03/13 23:04:16;;;;;;;2.53;0.90;;;5.50;99.90;;;;;;4945843;29;20517;-86
2021/03/13 23:06:49;;;;;;;1.23;0.70;;;5.50;99.90;;;;;;4940654;29;20472;-85
2021/03/13 23:09:28;;;;;;;0.77;0.77;;;5.40;99.90;;;;;;4940397;29;20445;-84
2021/03/13 23:11:55;;;;;;;2.23;1.00;;;5.50;99.90;;;;;;4935344;29;20459;-84
2021/03/13 23:14:30;;;;;;;2.63;1.17;;;5.50;99.90;;;;;;4922958;29;20498;-84
2021/03/13 23:16:57;;;;;;;1.53;0.67;;;5.60;99.90;;;;;;4938917;29;21001;-85
2021/03/13 23:19:31;;;;;;;1.00;0.60;;;5.60;99.90;;;;;;4938294;29;20798;-85
2021/03/13 23:22:00;;;;;;;1.40;0.70;;;5.60;99.90;;;;;;4920218;29;20453;-85
2021/03/13 23:24:26;;;;;;;1.00;0.70;;;5.60;99.90;;;;;;4920281;29;20466;-85
2021/03/13 23:26:53;;;;;;;0.77;0.57;;;5.50;99.90;;;;;;4936179;29;20469;-85
2021/03/13 23:29:22;;;;;;;1.10;0.90;;;5.50;99.90;;;;;;4937247;29;20933;-85
2021/03/13 23:31:51;;;;;;;1.57;0.70;;;5.50;99.90;;;;;;4944574;29;20969;-84
2021/03/13 23:34:17;;;;;;;1.37;0.70;;;5.60;99.90;;;;;;4939939;29;20430;-84
2021/03/13 23:36:52;;;;;;;1.97;0.73;;;5.60;99.90;;;;;;4938675;29;20486;-84
2021/03/13 23:39:22;;;;;;;0.93;0.50;;;5.60;99.90;;;;;;4938343;29;20819;-85
2021/03/13 23:41:49;;;;;;;1.20;0.83;;;5.60;99.90;;;;;;4938452;29;20450;-85
2021/03/13 23:44:16;;;;;;;1.77;0.80;;;5.50;99.90;;;;;;4937500;29;20555;-85
2021/03/13 23:46:45;;;;;;;2.40;0.90;;;5.50;99.90;;;;;;4937176;29;20501;-85
2021/03/13 23:49:18;;;;;;;2.03;0.80;;;5.50;99.90;;;;;;4938065;29;20495;-85
2021/03/13 23:51:45;;;;;;;0.93;0.70;;;5.50;99.90;;;;;;4937287;29;20460;-85
2021/03/13 23:54:11;;;;;;;1.37;1.00;;;5.50;99.90;;;;;;4937559;29;21088;-85
2021/03/13 23:56:40;;;;;;;2.43;0.90;;;5.50;99.90;;;;;;4936755;29;20512;-85
2021/03/13 23:59:11;;;;;;;1.30;0.90;;;5.50;99.90;;;;;;4947126;29;20443;-85
